Tiempo atmosférico en la estación meteorológica de Aroche, Huelva (260 m.)



Fecha
DESCASC
Temp. máxima en grados centígrados (hora)
DESCASC
Temp. mínima en grados centígrados (hora)
DESCASC
Temp. media en grados centígrados
DESCASC
Racha de viento máxima en m/sg (hora)
DESCASC
Velocidad máxima media en intervalos de 10 minutos(hora)
DESCASC
Precipitaciones diarias en mm
DESCASC
Precipitaciones de 00:00 a 06:00 en mm
DESCASC
Precipitaciones de 06:00 a 12:00 en mm
DESCASC
Precipitaciones de 12:00 a 18:00 en mm
DESCASC
Precipitaciones de 18:00 a 24:00 en mm
DESCASC
24-09-2020 22.3 (17:30) 16 (04:20) 19.1 5 (18:00) 3.33 (18:40) 2.2 0 1.8 0.4 0
23-09-2020 24.9 (16:20) 14.9 (00:00) 19.9 10.28 (17:40) 6.11 (17:40) 2.6 0 0 2.6 0
22-09-2020 28 (16:50) 12.7 (00:00) 20.3 6.39 (14:50) 3.61 (19:20) 0 0 0 0 0
21-09-2020 27.4 (17:10) 13.9 (00:00) 20.6 9.17 (14:20) 3.89 (17:40) 0 0 0 0 0
20-09-2020 25.5 (18:00) 14.8 (00:00) 20.2 7.78 (17:00) 4.17 (16:40) 0 0 0 0 0
19-09-2020 25.8 (16:20) 16.3 (00:00) 21 8.33 (16:40) 5 (18:10) 0 0 0 0 0
18-09-2020 23.4 (17:00) 15.1 (00:00) 19.3 14.44 (17:10) 8.33 (17:00) 33.4 0 24.2 9 0.2
17-09-2020 27.5 (15:00) 15.4 (00:00) 21.4 13.33 (18:50) 7.5 (17:40) 3.2 0 0 0 3.2
16-09-2020 29.4 (14:30) 12.1 (00:00) 20.8 7.5 (13:00) 4.17 (12:50) 0 0 0 0 0
15-09-2020 31.9 (18:20) 11.4 (00:00) 21.6 7.78 (14:40) 3.33 (14:10) 0 0 0 0 0
14-09-2020 31.3 (15:20) 15.8 (00:00) 23.5 11.11 (15:30) 5.83 (14:50) 0 0 0 0 0
13-09-2020 34.7 (16:00) 17.8 (00:00) 26.3 9.72 (15:20) 5.83 (16:30) 0 0 0 0 0
12-09-2020 36.5 (18:00) 13 (00:00) 24.8 6.39 (14:00) 3.33 (17:50) 0 0 0 0 0
11-09-2020 34.8 (17:10) 12.9 (00:00) 23.8 7.22 (17:30) 4.17 (13:00) 0 0 0 0 0
10-09-2020 35.5 (16:40) 12.6 (00:00) 24.1 7.78 (19:20) 4.17 (15:40) 0 0 0 0 0
09-09-2020 33 (17:50) 15.4 (00:00) 24.2 7.5 (14:40) 3.61 (14:40) 0 0 0 0 0
08-09-2020 34.2 (16:50) 13.7 (00:00) 24 10 (17:30) 4.44 (17:30) 0 0 0 0 0
07-09-2020 36.9 (15:40) 13.4 (08:00) 25.2 8.61 (16:50) 4.72 (18:10) 0 0 0 0 0
06-09-2020 37.8 (17:10) 14.6 (00:00) 26.2 8.89 (14:40) 4.17 (15:30) 0 0 0 0 0
05-09-2020 36.7 (18:10) 13.6 (00:00) 25.2 6.67 (16:30) 3.61 (16:30) 0 0 0 0 0
04-09-2020 37 (18:20) 13.8 (00:00) 25.4 9.72 (12:10) 5.28 (10:50) 0 0 0 0 0
03-09-2020 36.5 (17:30) 11.6 (00:00) 24.1 10 (15:40) 5 (15:30) 0 0 0 0 0
02-09-2020 34.1 (18:40) 11.2 (00:00) 22.6 8.33 (18:10) 3.89 (19:20) 0 0 0 0 0
01-09-2020 32.3 (18:00) 12.2 (00:00) 22.2 9.72 (17:20) 5.28 (17:20) 0 0 0 0 0
31-08-2020 33.5 (15:30) 10.4 (00:00) 21.9 8.61 (16:50) 4.17 (19:20) 0 0 0 0 0
30-08-2020 30.1 (17:40) 9 (00:00) 19.6 8.06 (15:00) 4.72 (17:50) 0 0 0 0 0
29-08-2020 27.4 (17:50) 13.6 (00:00) 20.5 13.06 (13:50) 6.67 (12:40) 0 0 0 0 0
28-08-2020 31.1 (16:40) 17.8 (00:00) 24.4 11.39 (14:30) 6.11 (17:10) 0 0 0 0 0
27-08-2020 36.1 (18:20) 13.6 (00:00) 24.8 10 (22:10) 6.11 (22:00) 0 0 0 0 0
26-08-2020 37.7 (18:00) 14.5 (00:00) 26.1 7.78 (15:10) 4.44 (16:50) 0 0 0 0 0

Gráficas

Temp. máximas Temp. mínimas Temp. medias Precipitaciones Rachas de viento máximas Velocidades máximas media en intervalos de 10 minutos

Datos horarios

Fecha y hora oficial Temperatura (ºC) Velocidad del viento (km/h) Dirección del viento Racha (km/h) Dirección de racha Precipitación (mm) Presión (hPa) Tendencia (hPa) Humedad (%)
2020-09-24 23:00:00 18.8 2 Norte 8 Oeste 0 -- -- 95
2020-09-24 22:00:00 19.5 2 Norte 5 Oeste 0 -- -- 91
2020-09-24 21:00:00 20.7 3 Oeste 12 Oeste 0 -- -- 87
2020-09-24 20:00:00 21.6 5 Noroeste 16 Oeste 0 -- -- 84
2020-09-24 19:00:00 22.2 9 Noroeste 18 Noroeste 0 -- -- 80
2020-09-24 18:00:00 22.3 8 Oeste 18 Oeste 0 -- -- 80
2020-09-24 17:00:00 21.8 4 Noroeste 11 Oeste 0 -- -- 83
2020-09-24 16:00:00 21.2 6 Noroeste 10 Oeste 0.2 -- -- 88
2020-09-24 15:00:00 20.8 5 Sudoeste 9 Sudoeste 0.2 -- -- 89
2020-09-24 14:00:00 21 3 Sudoeste 7 Oeste 0 -- -- 88
2020-09-24 13:00:00 20.4 4 Noroeste 8 Sudoeste 0 -- -- 94
2020-09-24 12:00:00 19.6 3 Nordeste 9 Nordeste 0.2 -- -- 98
2020-09-24 11:00:00 18.6 0 Calma 6 Este 0.6 -- -- 100
2020-09-24 10:00:00 17.7 4 Nordeste 5 Nordeste 0.2 -- -- 100
2020-09-24 09:00:00 17.1 3 Este 4 Este 0.8 -- -- 99
2020-09-24 08:00:00 16.7 0 Calma 6 Sudeste 0 -- -- 99
2020-09-24 07:00:00 16.5 2 Este 7 Nordeste 0 -- -- 99
2020-09-24 06:00:00 16.2 3 Sur 5 Sudoeste 0 -- -- 99
2020-09-24 05:00:00 16.3 3 Sur 6 Este 0 -- -- 99
2020-09-24 04:00:00 16.3 5 Este 7 Este 0 -- -- 98
2020-09-24 03:00:00 16.8 3 Nordeste 5 Nordeste 0 -- -- 98
2020-09-24 02:00:00 17.1 2 Este 5 Este 0 -- -- 98
2020-09-24 01:00:00 16.9 3 Este 6 Nordeste 0 -- -- 96
2020-09-24 00:00:00 17.4 0 Calma 6 Nordeste 0 -- -- 96
2020-09-23 23:00:00 18.1 3 Nordeste 6 Nordeste 0 -- -- 96
2020-09-23 22:00:00 19 0 Calma 6 Este 0 -- -- 94
2020-09-23 21:00:00 20.1 4 Este 5 Este 0 -- -- 92
2020-09-23 20:00:00 21.6 0 Calma 5 Sudoeste 0 -- -- 83
2020-09-23 19:00:00 21.3 2 Sudoeste 21 Norte 0 -- -- 85
2020-09-23 18:00:00 20.6 14 Norte 37 Noroeste 2.6 -- -- 88
2020-09-23 17:00:00 23.5 9 Noroeste 18 Oeste 0 -- -- 71
2020-09-23 16:00:00 24.4 8 Noroeste 22 Sudoeste 0 -- -- 60
2020-09-23 15:00:00 24.5 9 Oeste 22 Oeste 0 -- -- 59
2020-09-23 14:00:00 22.9 12 Sudoeste 22 Sudoeste 0 -- -- 65
2020-09-23 13:00:00 21.9 10 Oeste 19 Sudoeste 0 -- -- 67
2020-09-23 12:00:00 21.5 10 Oeste 19 Oeste 0 -- -- 68
2020-09-23 11:00:00 19.3 4 Noroeste 8 Oeste 0 -- -- 82
2020-09-23 10:00:00 17.7 3 Sur 6 Sur 0 -- -- 91
2020-09-23 09:00:00 16.3 3 Este 4 Este 0 -- -- 96
2020-09-23 08:00:00 15.6 0 Calma 4 Sudeste 0 -- -- 96
2020-09-23 07:00:00 14.9 0 Calma 5 Sur 0 -- -- 96
2020-09-23 06:00:00 15.3 0 Calma 5 Sudeste 0 -- -- 94
2020-09-23 05:00:00 15.7 4 Este 6 Este 0 -- -- 95
2020-09-23 04:00:00 15.1 0 Calma 5 Nordeste 0 -- -- 93
2020-09-23 03:00:00 15.9 0 Calma 6 Nordeste 0 -- -- 89
2020-09-23 02:00:00 17.4 3 Este 5 Este 0 -- -- 83
2020-09-23 01:00:00 18.9 3 Oeste 14 Oeste 0 -- -- 77
2020-09-23 00:00:00 19.6 6 Oeste 16 Oeste 0 -- -- 72
2020-09-22 23:00:00 20.4 6 Oeste 18 Oeste 0 -- -- 67
2020-09-22 22:00:00 21.5 3 Norte 6 Oeste 0 -- -- 60
2020-09-22 21:00:00 23.5 4 Oeste 17 Oeste 0 -- -- 47
2020-09-22 20:00:00 24.8 11 Noroeste 20 Noroeste 0 -- -- 44
2020-09-22 19:00:00 26.6 12 Oeste 20 Oeste 0 -- -- 38
2020-09-22 18:00:00 27.3 10 Sudoeste 19 Oeste 0 -- -- 36
2020-09-22 17:00:00 28 6 Sudoeste 18 Sur 0 -- -- 37
2020-09-22 16:00:00 27 8 Oeste 17 Oeste 0 -- -- 41
2020-09-22 15:00:00 26 7 Oeste 23 Sudoeste 0 -- -- 46
2020-09-22 14:00:00 24.8 8 Noroeste 19 Noroeste 0 -- -- 49
2020-09-22 13:00:00 23.8 8 Noroeste 16 Noroeste 0 -- -- 55
2020-09-22 12:00:00 22.6 5 Noroeste 11 Noroeste 0 -- -- 62
2020-09-22 11:00:00 19.2 3 Oeste 4 Oeste 0 -- -- 75
2020-09-22 10:00:00 16 0 Calma 3 Nordeste 0 -- -- 90
2020-09-22 09:00:00 12.8 0 Calma 4 Este 0 -- -- 96
2020-09-22 08:00:00 12.9 2 Este 5 Este 0 -- -- 95
2020-09-22 07:00:00 13.2 2 Este 4 Este 0 -- -- 94
2020-09-22 06:00:00 14.1 0 Calma 8 Este 0 -- -- 92
2020-09-22 05:00:00 14.7 4 Este 7 Este 0 -- -- 89
2020-09-22 04:00:00 15.8 2 Este 7 Este 0 -- -- 84
2020-09-22 03:00:00 16.7 4 Este 8 Este 0 -- -- 80
2020-09-22 02:00:00 17.4 0 Calma 7 Sur 0 -- -- 76
2020-09-22 01:00:00 17.6 3 Sudeste 8 Sudeste 0 -- -- 75
2020-09-22 00:00:00 16.9 2 Sur 8 Sudeste 0 -- -- 79
2020-09-21 23:00:00 17.9 3 Sudeste 6 Sudeste 0 -- -- 73
2020-09-21 22:00:00 19.9 2 Sur 5 Noroeste 0 -- -- 59
2020-09-21 21:00:00 22.8 3 Noroeste 17 Noroeste 0 -- -- 48
2020-09-21 20:00:00 24.9 10 Noroeste 21 Noroeste 0 -- -- 39
2020-09-21 19:00:00 26.3 11 Oeste 25 Oeste 0 -- -- 37
2020-09-21 18:00:00 27 12 Noroeste 23 Noroeste 0 -- -- 35
2020-09-21 17:00:00 27.1 14 Noroeste 23 Noroeste 0 -- -- 35
2020-09-21 16:00:00 26.7 12 Noroeste 24 Noroeste 0 -- -- 34
2020-09-21 15:00:00 26.3 9 Norte 33 Noroeste 0 -- -- 41
2020-09-21 14:00:00 24.3 12 Noroeste 28 Noroeste 0 -- -- 46
2020-09-21 13:00:00 23.8 8 Norte 20 Nordeste 0 -- -- 51
2020-09-21 12:00:00 21.7 8 Nordeste 15 Nordeste 0 -- -- 61
2020-09-21 11:00:00 17.4 3 Oeste 6 Oeste 0 -- -- 94
2020-09-21 10:00:00 15.7 2 Sur 4 Sudoeste 0 -- -- 99
2020-09-21 09:00:00 14.4 0 Calma 3 Sur 0 -- -- 99
2020-09-21 08:00:00 14.2 0 Calma 5 Sur 0 -- -- 98
2020-09-21 07:00:00 14.1 0 Calma 3 Sudeste 0 -- -- 98
2020-09-21 06:00:00 14.1 0 Calma 5 Norte 0 -- -- 98
2020-09-21 05:00:00 13.9 2 Sudeste 5 Sur 0 -- -- 97
2020-09-21 04:00:00 14.5 2 Este 6 Nordeste 0 -- -- 97
2020-09-21 03:00:00 14.7 2 Este 4 Sudeste 0 -- -- 96
2020-09-21 02:00:00 15.1 3 Sudeste 6 Nordeste 0 -- -- 94
2020-09-21 01:00:00 15.7 5 Este 6 Este 0 -- -- 94
2020-09-21 00:00:00 16.5 0 Calma 4 Este 0 -- -- 91
2020-09-20 23:00:00 17.8 0 Calma 5 Nordeste 0 -- -- 86
2020-09-20 22:00:00 19.5 3 Nordeste 7 Nordeste 0 -- -- 78
2020-09-20 21:00:00 21.5 3 Oeste 13 Noroeste 0 -- -- 69
2020-09-20 20:00:00 23.5 8 Noroeste 18 Oeste 0 -- -- 58
2020-09-20 19:00:00 24.1 9 Noroeste 20 Norte 0 -- -- 58
2020-09-20 18:00:00 25.5 9 Noroeste 22 Noroeste 0 -- -- 52
2020-09-20 17:00:00 25.3 14 Oeste 28 Oeste 0 -- -- 52
2020-09-20 16:00:00 24.4 8 Oeste 20 Oeste 0 -- -- 59
2020-09-20 15:00:00 23.9 8 Oeste 23 Oeste 0 -- -- 61
2020-09-20 14:00:00 23.2 9 Oeste 23 Oeste 0 -- -- 61
2020-09-20 13:00:00 22.2 11 Oeste 23 Oeste 0 -- -- 69
2020-09-20 12:00:00 21.2 7 Oeste 15 Oeste 0 -- -- 72
2020-09-20 11:00:00 19.4 5 Norte 12 Sudoeste 0 -- -- 83
2020-09-20 10:00:00 17.6 2 Nordeste 5 Este 0 -- -- 96
2020-09-20 09:00:00 15.9 0 Calma 4 Nordeste 0 -- -- 98
2020-09-20 08:00:00 15.5 0 Calma 4 Nordeste 0 -- -- 97
2020-09-20 07:00:00 15.8 2 Norte 4 Sudeste 0 -- -- 97
2020-09-20 06:00:00 16.4 0 Calma 3 Nordeste 0 -- -- 96
2020-09-20 05:00:00 16.1 0 Calma 5 Nordeste 0 -- -- 97
2020-09-20 04:00:00 15.3 0 Calma 4 Sudeste 0 -- -- 96
2020-09-20 03:00:00 15.3 0 Calma 5 Nordeste 0 -- -- 96
2020-09-20 02:00:00 14.8 0 Calma 5 Nordeste 0 -- -- 94
2020-09-20 01:00:00 15.3 0 Calma 4 Nordeste 0 -- -- 92
2020-09-20 00:00:00 16.3 0 Calma 5 Este 0 -- -- 88
2020-09-19 23:00:00 17.7 3 Este 8 Sudoeste 0 -- -- 81
2020-09-19 22:00:00 19.4 6 Oeste 16 Oeste 0 -- -- 72
2020-09-19 21:00:00 21.3 7 Oeste 21 Oeste 0 -- -- 63
2020-09-19 20:00:00 23.5 12 Oeste 27 Oeste 0 -- -- 55
2020-09-19 19:00:00 25 14 Noroeste 29 Oeste 0 -- -- 51
2020-09-19 18:00:00 25.8 10 Oeste 26 Oeste 0 -- -- 47
2020-09-19 17:00:00 25.7 12 Sudoeste 30 Sudoeste 0 -- -- 48
2020-09-19 16:00:00 25 11 Sudoeste 23 Sudoeste 0 -- -- 53
2020-09-19 15:00:00 23.4 15 Oeste 23 Noroeste 0 -- -- 59
2020-09-19 14:00:00 23.3 9 Oeste 21 Noroeste 0 -- -- 62
2020-09-19 13:00:00 21.3 9 Oeste 19 Oeste 0 -- -- 68
2020-09-19 12:00:00 20.3 9 Oeste 15 Noroeste 0 -- -- 76
2020-09-19 11:00:00 18.7 6 Oeste 11 Oeste 0 -- -- 84
2020-09-19 10:00:00 18.1 0 Calma 5 Este 0 -- -- 89
2020-09-19 09:00:00 16.9 0 Calma 3 Sudoeste 0 -- -- 95
2020-09-19 08:00:00 16.8 2 Este 6 Sudeste 0 -- -- 93
2020-09-19 07:00:00 16.7 2 Este 6 Oeste 0 -- -- 92
2020-09-19 06:00:00 17.5 3 Sudoeste 15 Sudoeste 0 -- -- 88
2020-09-19 05:00:00 17.9 6 Sudoeste 15 Sudoeste 0 -- -- 86
2020-09-19 04:00:00 17.9 8 Sudoeste 17 Sudoeste 0 -- -- 86
2020-09-19 03:00:00 17.9 6 Sudoeste 19 Sur 0 -- -- 86
2020-09-19 02:00:00 18.1 8 Sudoeste 25 Sudoeste 0 -- -- 87
2020-09-19 01:00:00 18.2 13 Sur 29 Sudoeste 0 -- -- 87
2020-09-19 00:00:00 18.4 11 Sur 23 Sudoeste 0 -- -- 86
2020-09-18 23:00:00 18.5 14 Sur 23 Sur 0 -- -- 86
2020-09-18 22:00:00 18.5 11 Sur 20 Sur 0 -- -- 85
2020-09-18 21:00:00 18.5 10 Sudoeste 29 Sudoeste 0 -- -- 85
2020-09-18 20:00:00 18.8 10 Sudoeste 44 Sudoeste 0.2 -- -- 87
2020-09-18 19:00:00 19.8 17 Sudoeste 35 Sudoeste 0 -- -- 81
2020-09-18 18:00:00 19 15 Sudoeste 52 Sur 5.2 -- -- 90
2020-09-18 17:00:00 23.4 30 Sur 46 Sudoeste 0.2 -- -- 64
2020-09-18 16:00:00 21.8 24 Sur 42 Sur 0.2 -- -- 79
2020-09-18 15:00:00 21 13 Sur 37 Sur 0 -- -- 78
2020-09-18 14:00:00 19.1 18 Sur 33 Sudoeste 0.6 -- -- 93
2020-09-18 13:00:00 18.4 15 Sur 35 Sur 2.8 -- -- 89
2020-09-18 12:00:00 17.1 7 Noroeste 39 Sudoeste 20.6 -- -- 95
2020-09-18 11:00:00 18.1 3 Sudoeste 18 Sudeste 3.4 -- -- 93
2020-09-18 10:00:00 18.5 8 Sudeste 21 Sudeste 0.2 -- -- 86
2020-09-18 09:00:00 17.6 9 Sur 21 Sur 0 -- -- 91
2020-09-18 08:00:00 15.8 4 Este 10 Sur 0 -- -- 97
2020-09-18 07:00:00 15.3 3 Sudeste 8 Este 0 -- -- 97
2020-09-18 06:00:00 15.2 0 Calma 11 Sudeste 0 -- -- 95
2020-09-18 05:00:00 16.2 6 Este 10 Este 0 -- -- 96
2020-09-18 04:00:00 16.8 0 Calma 5 Sudeste 0 -- -- 94
2020-09-18 03:00:00 18.3 3 Sudoeste 7 Sudoeste 0 -- -- 92
2020-09-18 02:00:00 19 0 Calma 8 Sur 0 -- -- 93
2020-09-18 01:00:00 19.3 4 Sudoeste 10 Sudoeste 0 -- -- 92
2020-09-18 00:00:00 19.5 2 Sur 16 Sudeste 0.6 -- -- 92
2020-09-17 23:00:00 20.5 9 Sudoeste 21 Sudoeste 2.6 -- -- 82
2020-09-17 22:00:00 21.2 14 Sur 31 Sudoeste 0 -- -- 74
2020-09-17 21:00:00 21.6 17 Sur 35 Sur 0 -- -- 71
2020-09-17 20:00:00 22.7 18 Sur 33 Sur 0 -- -- 68
2020-09-17 19:00:00 23.3 22 Sur 48 Sur 0 -- -- 64
2020-09-17 18:00:00 25 23 Sur 45 Sudoeste 0 -- -- 57
2020-09-17 17:00:00 27.1 22 Sur 43 Sur 0 -- -- 50
2020-09-17 16:00:00 27 20 Sur 36 Sudeste 0 -- -- 49
2020-09-17 15:00:00 27.5 16 Sur 32 Sudeste 0 -- -- 47
2020-09-17 14:00:00 26.7 16 Sudeste 30 Sudeste 0 -- -- 50
2020-09-17 13:00:00 25.3 13 Sur 29 Sur 0 -- -- 53
2020-09-17 12:00:00 23.2 13 Sur 28 Sudoeste 0 -- -- 59
2020-09-17 11:00:00 22.3 11 Sudeste 22 Sudeste 0 -- -- 67
2020-09-17 10:00:00 19.9 11 Sur 20 Sur 0 -- -- 79
2020-09-17 09:00:00 19.1 12 Sur 19 Sudeste 0 -- -- 83
2020-09-17 08:00:00 19.3 3 Sudoeste 13 Sur 0 -- -- 83
2020-09-17 07:00:00 19.7 8 Sur 23 Sudeste 0 -- -- 83
2020-09-17 06:00:00 20 13 Sur 26 Sur 0 -- -- 82
2020-09-17 05:00:00 15.9 2 Este 8 Este 0 -- -- 91
2020-09-17 04:00:00 15.7 3 Sudeste 6 Sur 0 -- -- 89
2020-09-17 03:00:00 16.5 3 Nordeste 5 Norte 0 -- -- 87
2020-09-17 02:00:00 17.5 0 Calma 4 Noroeste 0 -- -- 86
2020-09-17 01:00:00 18.8 0 Calma 4 Oeste 0 -- -- 81
2020-09-17 00:00:00 19.5 0 Calma 5 Este 0 -- -- 79
2020-09-16 23:00:00 21.6 2 Sur 6 Sudoeste 0 -- -- 73
2020-09-16 22:00:00 23.5 5 Sur 12 Sudoeste 0 -- -- 67
2020-09-16 21:00:00 24.3 4 Sudeste 16 Sudeste 0 -- -- 63
2020-09-16 20:00:00 25.5 8 Sur 25 Sur 0 -- -- 58
2020-09-16 19:00:00 26 10 Sur 25 Sur 0 -- -- 55
2020-09-16 18:00:00 27 15 Sur 24 Sudoeste 0 -- -- 54
2020-09-16 17:00:00 28.7 11 Sur 21 Sur 0 -- -- 44
2020-09-16 16:00:00 28.9 10 Sudoeste 26 Sur 0 -- -- 43
2020-09-16 15:00:00 29.4 6 Sudeste 26 Sur 0 -- -- 42
2020-09-16 14:00:00 28.8 10 Sur 26 Sur 0 -- -- 43
2020-09-16 13:00:00 29 12 Sur 27 Sur 0 -- -- 43
2020-09-16 12:00:00 27.9 8 Sudoeste 19 Sudoeste 0 -- -- 44
2020-09-16 11:00:00 24.4 4 Oeste 8 Sudoeste 0 -- -- 52
2020-09-16 10:00:00 18.9 0 Calma 3 Este 0 -- -- 68
2020-09-16 09:00:00 13.1 3 Sudeste 6 Este 0 -- -- 87
2020-09-16 08:00:00 12.1 3 Este 5 Este 0 -- -- 89
2020-09-16 07:00:00 12.4 3 Sur 5 Sur 0 -- -- 87
2020-09-16 06:00:00 13.1 3 Este 8 Sudeste 0 -- -- 85
2020-09-16 05:00:00 13 2 Este 4 Este 0 -- -- 81
2020-09-16 04:00:00 13.6 3 Este 4 Este 0 -- -- 81
2020-09-16 03:00:00 14.5 0 Calma 5 Este 0 -- -- 73
2020-09-16 02:00:00 16 0 Calma 6 Este 0 -- -- 71
2020-09-16 01:00:00 17.2 0 Calma 6 Oeste 0 -- -- 68
2020-09-16 00:00:00 18.5 3 Norte 7 Oeste 0 -- -- 61
2020-09-15 23:00:00 20.6 0 Calma 6 Noroeste 0 -- -- 56
2020-09-15 22:00:00 23.9 4 Sudoeste 11 Sudoeste 0 -- -- 46
2020-09-15 21:00:00 26.3 4 Oeste 18 Sudoeste 0 -- -- 41
2020-09-15 20:00:00 30.2 5 Sur 15 Sudoeste 0 -- -- 32
2020-09-15 19:00:00 31.3 6 Sur 15 Sur 0 -- -- 30
2020-09-15 18:00:00 31.4 6 Sur 21 Sudeste 0 -- -- 31
2020-09-15 17:00:00 31 10 Sudoeste 23 Sur 0 -- -- 33
2020-09-15 16:00:00 30.8 6 Sur 24 Sudeste 0 -- -- 33
2020-09-15 15:00:00 30.1 9 Sur 28 Sur 0 -- -- 36
2020-09-15 14:00:00 29.2 8 Sudeste 21 Sudoeste 0 -- -- 38
2020-09-15 13:00:00 28.2 8 Sur 18 Sur 0 -- -- 40
2020-09-15 12:00:00 24.4 5 Norte 10 Noroeste 0 -- -- 56
2020-09-15 11:00:00 20.4 3 Oeste 5 Noroeste 0 -- -- 70
2020-09-15 10:00:00 16 0 Calma 2 Norte 0 -- -- 88
2020-09-15 09:00:00 12.3 0 Calma 2 Nordeste 0 -- -- 95
2020-09-15 08:00:00 11.4 2 Nordeste 5 Sur 0 -- -- 92
2020-09-15 07:00:00 12.1 0 Calma 6 Nordeste 0 -- -- 91
2020-09-15 06:00:00 12.8 5 Sudeste 6 Sudeste 0 -- -- 92
2020-09-15 05:00:00 13.6 0 Calma 5 Sudeste 0 -- -- 89
2020-09-15 04:00:00 14.2 2 Este 6 Este 0 -- -- 89
2020-09-15 03:00:00 14.8 0 Calma 6 Sudeste 0 -- -- 87
2020-09-15 02:00:00 15.9 0 Calma 5 Este 0 -- -- 87
2020-09-15 01:00:00 16.8 0 Calma 3 Nordeste 0 -- -- 79
2020-09-15 00:00:00 19 2 Nordeste 6 Noroeste 0 -- -- 77
2020-09-14 23:00:00 21.3 2 Sudoeste 12 Sudeste 0 -- -- 71
2020-09-14 22:00:00 23.5 8 Sudeste 12 Sudeste 0 -- -- 66
2020-09-14 21:00:00 25.1 2 Norte 16 Sur 0 -- -- 60
2020-09-14 20:00:00 27.6 9 Sudoeste 29 Sur 0 -- -- 53
2020-09-14 19:00:00 29.3 14 Sur 27 Sur 0 -- -- 48
2020-09-14 18:00:00 30.2 18 Sur 35 Sudoeste 0 -- -- 46
2020-09-14 17:00:00 30.8 19 Sudoeste 33 Sudoeste 0 -- -- 45
2020-09-14 16:00:00 31.1 18 Sur 40 Sudoeste 0 -- -- 43
2020-09-14 15:00:00 30.3 16 Sur 34 Sudoeste 0 -- -- 45
2020-09-14 14:00:00 30.2 13 Sur 31 Sur 0 -- -- 44
2020-09-14 13:00:00 29.6 12 Sur 32 Sudeste 0 -- -- 44
2020-09-14 12:00:00 28.1 8 Sur 23 Sur 0 -- -- 46
2020-09-14 11:00:00 25 5 Sudeste 8 Sudeste 0 -- -- 61
2020-09-14 10:00:00 20.7 0 Calma 4 Este 0 -- -- 75
2020-09-14 09:00:00 16.1 0 Calma 4 Sudeste 0 -- -- 89
2020-09-14 08:00:00 16.5 2 Este 5 Este 0 -- -- 84
2020-09-14 07:00:00 17.1 3 Sudeste 6 Nordeste 0 -- -- 86
2020-09-14 06:00:00 17.2 3 Sur 7 Sur 0 -- -- 86
2020-09-14 05:00:00 18 2 Sudeste 4 Sur 0 -- -- 84
2020-09-14 04:00:00 18.4 3 Este 5 Nordeste 0 -- -- 81
2020-09-14 03:00:00 19.4 0 Calma 3 Este 0 -- -- 81
2020-09-14 02:00:00 20.4 0 Calma 6 Sudoeste 0 -- -- 75
2020-09-14 01:00:00 22.1 4 Sur 24 Sur 0 -- -- 72
2020-09-14 00:00:00 21.9 0 Calma 13 Sur 0 -- -- 70
2020-09-13 23:00:00 23.1 2 Noroeste 10 Sur 0 -- -- 66
2020-09-13 22:00:00 24.3 3 Nordeste 15 Oeste 0 -- -- 62
2020-09-13 21:00:00 25.8 6 Sudoeste 21 Sur 0 -- -- 56
2020-09-13 20:00:00 28.5 14 Sur 27 Sur 0 -- -- 48
2020-09-13 19:00:00 30 18 Sudoeste 28 Sudeste 0 -- -- 45
2020-09-13 18:00:00 32.1 18 Sur 31 Sur 0 -- -- 39
2020-09-13 17:00:00 32.6 16 Sudoeste 34 Sudoeste 0 -- -- 35
2020-09-13 16:00:00 34.7 15 Sudoeste 35 Sur 0 -- -- 29
2020-09-13 15:00:00 34.6 19 Sur 32 Sur 0 -- -- 24
2020-09-13 14:00:00 32.8 13 Sur 30 Sur 0 -- -- 26
2020-09-13 13:00:00 31.5 16 Sudeste 33 Sur 0 -- -- 29
2020-09-13 12:00:00 29 10 Sudeste 22 Sudeste 0 -- -- 34
2020-09-13 11:00:00 23.4 2 Oeste 5 Nordeste 0 -- -- 49
2020-09-13 10:00:00 20.8 0 Calma 5 Sudeste 0 -- -- 56
2020-09-13 09:00:00 19.7 5 Sur 6 Sur 0 -- -- 57
2020-09-13 08:00:00 18.9 3 Sudoeste 6 Nordeste 0 -- -- 59
2020-09-13 07:00:00 19.1 0 Calma 8 Sur 0 -- -- 57
2020-09-13 06:00:00 18.7 4 Este 9 Sur 0 -- -- 58
2020-09-13 05:00:00 18 6 Nordeste 8 Este 0 -- -- 59
2020-09-13 04:00:00 18.5 3 Sudeste 9 Nordeste 0 -- -- 55
2020-09-13 03:00:00 19.4 4 Este 8 Nordeste 0 -- -- 53
2020-09-13 02:00:00 20.5 2 Este 6 Nordeste 0 -- -- 49
2020-09-13 01:00:00 21.2 0 Calma 5 Sur 0 -- -- 48
2020-09-13 00:00:00 22.5 2 Norte 7 Norte 0 -- -- 44
2020-09-12 23:00:00 24.6 2 Nordeste 9 Este 0 -- -- 39
2020-09-12 22:00:00 26.2 0 Calma 6 Oeste 0 -- -- 36
2020-09-12 21:00:00 30 0 Calma 12 Sudoeste 0 -- -- 29
2020-09-12 20:00:00 33.7 6 Sudoeste 16 Este 0 -- -- 23
2020-09-12 19:00:00 35 8 Sudeste 19 Este 0 -- -- 20
2020-09-12 18:00:00 36.5 10 Sur 23 Sudeste 0 -- -- 18
2020-09-12 17:00:00 35.6 7 Sur 19 Sudeste 0 -- -- 20
2020-09-12 16:00:00 35.3 4 Noroeste 22 Sur 0 -- -- 20
2020-09-12 15:00:00 34.8 10 Sudeste 22 Sudeste 0 -- -- 21
2020-09-12 14:00:00 35 11 Sudeste 23 Sudeste 0 -- -- 21
2020-09-12 13:00:00 33.8 8 Sur 17 Sur 0 -- -- 24
2020-09-12 12:00:00 31.7 9 Sudeste 18 Sudeste 0 -- -- 27
2020-09-12 11:00:00 29.5 5 Este 10 Este 0 -- -- 32
2020-09-12 10:00:00 22.8 0 Calma 4 Este 0 -- -- 48
2020-09-12 09:00:00 15.3 4 Sudeste 8 Este 0 -- -- 73
2020-09-12 08:00:00 13.1 3 Este 5 Sudeste 0 -- -- 78
2020-09-12 07:00:00 13.5 3 Este 5 Este 0 -- -- 75
2020-09-12 06:00:00 14 0 Calma 5 Nordeste 0 -- -- 71
2020-09-12 05:00:00 15.4 0 Calma 5 Sudeste 0 -- -- 68
2020-09-12 04:00:00 16.2 4 Este 5 Este 0 -- -- 66
2020-09-12 03:00:00 16.6 2 Nordeste 5 Nordeste 0 -- -- 64
2020-09-12 02:00:00 17.6 3 Este 5 Nordeste 0 -- -- 59
2020-09-12 01:00:00 18.3 2 Nordeste 5 Sur 0 -- -- 54
2020-09-12 00:00:00 19.7 0 Calma 5 Nordeste 0 -- -- 49
2020-09-11 23:00:00 21.8 0 Calma 5 Nordeste 0 -- -- 44
2020-09-11 22:00:00 24.7 2 Noroeste 10 Sudoeste 0 -- -- 38
2020-09-11 21:00:00 27.6 7 Sudoeste 13 Oeste 0 -- -- 32
2020-09-11 20:00:00 32.1 6 Oeste 16 Oeste 0 -- -- 26
2020-09-11 19:00:00 34 9 Oeste 22 Sudoeste 0 -- -- 23
2020-09-11 18:00:00 34.4 6 Oeste 26 Sudoeste 0 -- -- 23
2020-09-11 17:00:00 34.5 11 Sur 26 Sudoeste 0 -- -- 23
2020-09-11 16:00:00 33.3 13 Sudoeste 24 Sudoeste 0 -- -- 24
2020-09-11 15:00:00 34.2 9 Sur 20 Sudeste 0 -- -- 24
2020-09-11 14:00:00 32.4 9 Sur 21 Sudoeste 0 -- -- 26
2020-09-11 13:00:00 32 15 Sur 23 Sudoeste 0 -- -- 28
2020-09-11 12:00:00 30.9 10 Sur 21 Sudeste 0 -- -- 30
2020-09-11 11:00:00 27.6 8 Este 14 Este 0 -- -- 35
2020-09-11 10:00:00 21.7 0 Calma 4 Este 0 -- -- 49
2020-09-11 09:00:00 14.8 2 Este 9 Sudoeste 0 -- -- 68
2020-09-11 08:00:00 13 8 Este 10 Nordeste 0 -- -- 71
2020-09-11 07:00:00 13.4 3 Sudeste 6 Este 0 -- -- 68
2020-09-11 06:00:00 13.9 3 Este 6 Este 0 -- -- 66
2020-09-11 05:00:00 14.5 0 Calma 5 Sudeste 0 -- -- 61
2020-09-11 04:00:00 14.9 2 Nordeste 6 Sudeste 0 -- -- 58
2020-09-11 03:00:00 15.4 3 Nordeste 6 Sur 0 -- -- 54
2020-09-11 02:00:00 16.7 2 Sudeste 9 Nordeste 0 -- -- 49
2020-09-11 01:00:00 17.9 4 Sur 12 Este 0 -- -- 46
2020-09-11 00:00:00 19.1 3 Sur 7 Nordeste 0 -- -- 42
2020-09-10 23:00:00 21.3 2 Nordeste 8 Este 0 -- -- 37
2020-09-10 22:00:00 25.5 3 Nordeste 12 Noroeste 0 -- -- 30
2020-09-10 21:00:00 30.2 8 Noroeste 23 Noroeste 0 -- -- 23
2020-09-10 20:00:00 32.7 12 Noroeste 28 Oeste 0 -- -- 21
2020-09-10 19:00:00 34 12 Noroeste 22 Oeste 0 -- -- 20
2020-09-10 18:00:00 35 12 Oeste 24 Oeste 0 -- -- 20
2020-09-10 17:00:00 34.8 13 Oeste 23 Oeste 0 -- -- 20
2020-09-10 16:00:00 34 15 Oeste 27 Oeste 0 -- -- 22
2020-09-10 15:00:00 33.8 13 Oeste 26 Oeste 0 -- -- 23
2020-09-10 14:00:00 32.8 10 Oeste 24 Oeste 0 -- -- 24
2020-09-10 13:00:00 32 6 Sur 12 Sudeste 0 -- -- 26
2020-09-10 12:00:00 29 6 Noroeste 12 Noroeste 0 -- -- 35
2020-09-10 11:00:00 25.2 4 Noroeste 6 Noroeste 0 -- -- 43
2020-09-10 10:00:00 19.9 0 Calma 7 Sur 0 -- -- 63
2020-09-10 09:00:00 14 3 Este 6 Este 0 -- -- 83
2020-09-10 08:00:00 13 0 Calma 5 Este 0 -- -- 81
2020-09-10 07:00:00 13.1 3 Este 5 Este 0 -- -- 81
2020-09-10 06:00:00 14 0 Calma 5 Sudeste 0 -- -- 74
2020-09-10 05:00:00 14.5 3 Este 5 Sudeste 0 -- -- 71
2020-09-10 04:00:00 15.4 3 Este 4 Sudeste 0 -- -- 65
2020-09-10 03:00:00 16.3 3 Sudeste 5 Este 0 -- -- 60
2020-09-10 02:00:00 17.6 3 Sudeste 8 Este 0 -- -- 55
2020-09-10 01:00:00 18.9 4 Este 8 Oeste 0 -- -- 53
2020-09-10 00:00:00 20.7 3 Nordeste 17 Oeste 0 -- -- 46
2020-09-09 23:00:00 22.5 5 Nordeste 8 Este 0 -- -- 43
2020-09-09 22:00:00 25.3 3 Norte 10 Noroeste 0 -- -- 38
2020-09-09 21:00:00 28.7 6 Noroeste 18 Noroeste 0 -- -- 32
2020-09-09 20:00:00 31.1 8 Noroeste 24 Oeste 0 -- -- 28
2020-09-09 19:00:00 32.2 10 Noroeste 18 Norte 0 -- -- 24
2020-09-09 18:00:00 32.4 13 Noroeste 22 Noroeste 0 -- -- 24
2020-09-09 17:00:00 32.7 5 Oeste 20 Noroeste 0 -- -- 26
2020-09-09 16:00:00 32.1 7 Oeste 17 Norte 0 -- -- 28
2020-09-09 15:00:00 30.6 12 Norte 27 Oeste 0 -- -- 32
2020-09-09 14:00:00 29.9 6 Oeste 18 Norte 0 -- -- 40
2020-09-09 13:00:00 28.4 6 Norte 19 Oeste 0 -- -- 43
2020-09-09 12:00:00 26.7 6 Oeste 14 Sudoeste 0 -- -- 53
2020-09-09 11:00:00 24.9 2 Norte 5 Sur 0 -- -- 62
2020-09-09 10:00:00 21.1 3 Este 6 Este 0 -- -- 77
2020-09-09 09:00:00 16.4 3 Este 5 Este 0 -- -- 89
2020-09-09 08:00:00 15.5 2 Este 6 Este 0 -- -- 91
2020-09-09 07:00:00 15.8 2 Este 5 Este 0 -- -- 90
2020-09-09 06:00:00 16.4 0 Calma 5 Nordeste 0 -- -- 90
2020-09-09 05:00:00 17 2 Nordeste 4 Nordeste 0 -- -- 85
2020-09-09 04:00:00 17.9 4 Este 5 Este 0 -- -- 86
2020-09-09 03:00:00 18.4 0 Calma 3 Nordeste 0 -- -- 82
2020-09-09 02:00:00 19.4 0 Calma 6 Norte 0 -- -- 77
2020-09-09 01:00:00 20.7 0 Calma 4 Nordeste 0 -- -- 74
2020-09-09 00:00:00 22.3 0 Calma 11 Sur 0 -- -- 69
2020-09-08 23:00:00 24.1 6 Sur 14 Sur 0 -- -- 63
2020-09-08 22:00:00 26.2 4 Sudoeste 18 Sudoeste 0 -- -- 53
2020-09-08 21:00:00 28.4 11 Sudoeste 27 Noroeste 0 -- -- 46
2020-09-08 20:00:00 32.1 14 Oeste 23 Oeste 0 -- -- 27
2020-09-08 19:00:00 33.6 14 Oeste 27 Oeste 0 -- -- 27
2020-09-08 18:00:00 33.9 10 Oeste 36 Oeste 0 -- -- 27
2020-09-08 17:00:00 33.9 10 Oeste 26 Oeste 0 -- -- 30
2020-09-08 16:00:00 33.3 9 Oeste 26 Oeste 0 -- -- 31
2020-09-08 15:00:00 33.1 9 Sudoeste 17 Oeste 0 -- -- 31
2020-09-08 14:00:00 30.7 7 Oeste 15 Oeste 0 -- -- 35
2020-09-08 13:00:00 29.2 6 Oeste 14 Este 0 -- -- 41
2020-09-08 12:00:00 28 5 Este 15 Sudeste 0 -- -- 45
2020-09-08 11:00:00 26.4 4 Sudeste 12 Sur 0 -- -- 51
2020-09-08 10:00:00 22.7 3 Nordeste 5 Nordeste 0 -- -- 59
2020-09-08 09:00:00 15.9 0 Calma 6 Nordeste 0 -- -- 54
2020-09-08 08:00:00 13.7 0 Calma 7 Sur 0 -- -- 61
2020-09-08 07:00:00 14.4 3 Este 8 Sur 0 -- -- 58
2020-09-08 06:00:00 15.4 2 Sudeste 8 Este 0 -- -- 55
2020-09-08 05:00:00 15.8 3 Este 7 Este 0 -- -- 55
2020-09-08 04:00:00 16.3 0 Calma 7 Este 0 -- -- 52
2020-09-08 03:00:00 17.9 2 Este 7 Este 0 -- -- 49
2020-09-08 02:00:00 19.8 0 Calma 6 Nordeste 0 -- -- 43
2020-09-08 01:00:00 21.7 2 Norte 12 Sudeste 0 -- -- 41
2020-09-08 00:00:00 22.6 6 Sudeste 14 Sudeste 0 -- -- 39
2020-09-07 23:00:00 25 3 Sudeste 11 Oeste 0 -- -- 34
2020-09-07 22:00:00 26.3 3 Noroeste 9 Norte 0 -- -- 30
2020-09-07 21:00:00 31.5 0 Calma 17 Noroeste 0 -- -- 24
2020-09-07 20:00:00 35 13 Noroeste 27 Norte 0 -- -- 19
2020-09-07 19:00:00 36 14 Noroeste 27 Noroeste 0 -- -- 18
2020-09-07 18:00:00 36.7 9 Norte 27 Norte 0 -- -- 19
2020-09-07 17:00:00 36.4 16 Noroeste 31 Oeste 0 -- -- 20
2020-09-07 16:00:00 36.7 10 Noroeste 24 Oeste 0 -- -- 20
2020-09-07 15:00:00 35.9 9 Noroeste 26 Noroeste 0 -- -- 20
2020-09-07 14:00:00 35.3 12 Noroeste 25 Noroeste 0 -- -- 22
2020-09-07 13:00:00 33.5 11 Oeste 17 Oeste 0 -- -- 28
2020-09-07 12:00:00 30.7 3 Oeste 11 Oeste 0 -- -- 34
2020-09-07 11:00:00 25.7 5 Noroeste 8 Noroeste 0 -- -- 48
2020-09-07 10:00:00 20 0 Calma 3 Oeste 0 -- -- 64
2020-09-07 09:00:00 15.1 0 Calma 3 Este 0 -- -- 80
2020-09-07 08:00:00 13.4 0 Calma 3 Este 0 -- -- 81
2020-09-07 07:00:00 14.4 0 Calma 4 Sudeste 0 -- -- 81
2020-09-07 06:00:00 15.1 2 Sudeste 5 Sudeste 0 -- -- 76
2020-09-07 05:00:00 15.7 3 Este 7 Sudeste 0 -- -- 79
2020-09-07 04:00:00 16.3 2 Este 4 Sudeste 0 -- -- 73
2020-09-07 03:00:00 17.1 3 Nordeste 4 Sudeste 0 -- -- 71
2020-09-07 02:00:00 18.3 2 Este 4 Este 0 -- -- 65
2020-09-07 01:00:00 19.7 0 Calma 4 Norte 0 -- -- 64
2020-09-07 00:00:00 22 2 Nordeste 6 Sur 0 -- -- 57
2020-09-06 23:00:00 25 2 Nordeste 8 Nordeste 0 -- -- 50
2020-09-06 22:00:00 27.5 4 Sudeste 13 Sur 0 -- -- 42
2020-09-06 21:00:00 31 6 Sudeste 21 Sur 0 -- -- 35
2020-09-06 20:00:00 35.7 6 Norte 20 Noroeste 0 -- -- 20
2020-09-06 19:00:00 36.5 7 Noroeste 27 Norte 0 -- -- 20
2020-09-06 18:00:00 36.9 12 Norte 26 Oeste 0 -- -- 19
2020-09-06 17:00:00 37.6 8 Sudoeste 26 Oeste 0 -- -- 20
2020-09-06 16:00:00 36.6 12 Oeste 30 Oeste 0 -- -- 22
2020-09-06 15:00:00 35.8 12 Oeste 32 Oeste 0 -- -- 24
2020-09-06 14:00:00 35 7 Noroeste 14 Noroeste 0 -- -- 25
2020-09-06 13:00:00 33.5 5 Sur 12 Sudoeste 0 -- -- 27
2020-09-06 12:00:00 30.7 3 Nordeste 8 Este 0 -- -- 32
2020-09-06 11:00:00 27.6 0 Calma 5 Sudeste 0 -- -- 40
2020-09-06 10:00:00 23.1 2 Este 5 Sudeste 0 -- -- 52
2020-09-06 09:00:00 17.1 2 Este 5 Este 0 -- -- 69
2020-09-06 08:00:00 14.8 0 Calma 8 Este 0 -- -- 71
2020-09-06 07:00:00 15 7 Nordeste 8 Este 0 -- -- 73
2020-09-06 06:00:00 15 4 Nordeste 6 Nordeste 0 -- -- 69
2020-09-06 05:00:00 15.9 0 Calma 7 Noroeste 0 -- -- 68
2020-09-06 04:00:00 17.4 0 Calma 5 Sudeste 0 -- -- 62
2020-09-06 03:00:00 17.8 3 Sudeste 6 Nordeste 0 -- -- 61
2020-09-06 02:00:00 19.2 3 Este 8 Nordeste 0 -- -- 51
2020-09-06 01:00:00 20.3 2 Sudoeste 12 Oeste 0 -- -- 47
2020-09-06 00:00:00 23 3 Nordeste 9 Norte 0 -- -- 41
2020-09-05 23:00:00 25.2 5 Norte 8 Norte 0 -- -- 34
2020-09-05 22:00:00 28.5 5 Nordeste 12 Norte 0 -- -- 29
2020-09-05 21:00:00 32.2 7 Norte 19 Norte 0 -- -- 24
2020-09-05 20:00:00 35.1 8 Norte 19 Noroeste 0 -- -- 22
2020-09-05 19:00:00 36 9 Norte 15 Norte 0 -- -- 21
2020-09-05 18:00:00 36.3 6 Sudoeste 22 Oeste 0 -- -- 21
2020-09-05 17:00:00 35.8 8 Noroeste 24 Oeste 0 -- -- 23
2020-09-05 16:00:00 35.3 11 Oeste 20 Oeste 0 -- -- 24
2020-09-05 15:00:00 34.6 6 Norte 18 Oeste 0 -- -- 26
2020-09-05 14:00:00 33 5 Sudoeste 17 Sudoeste 0 -- -- 27
2020-09-05 13:00:00 30.6 5 Noroeste 13 Noroeste 0 -- -- 34
2020-09-05 12:00:00 28.7 6 Oeste 13 Oeste 0 -- -- 40
2020-09-05 11:00:00 26 4 Noroeste 8 Noroeste 0 -- -- 47
2020-09-05 10:00:00 20.9 0 Calma 4 Este 0 -- -- 56
2020-09-05 09:00:00 16.2 0 Calma 5 Sudeste 0 -- -- 72
2020-09-05 08:00:00 13.7 3 Sudeste 5 Este 0 -- -- 79
2020-09-05 07:00:00 14.7 3 Este 7 Este 0 -- -- 76
2020-09-05 06:00:00 14.8 0 Calma 6 Sudeste 0 -- -- 76
2020-09-05 05:00:00 15.4 4 Sudeste 6 Sudeste 0 -- -- 73
2020-09-05 04:00:00 16.3 3 Este 5 Sudeste 0 -- -- 72
2020-09-05 03:00:00 16.7 0 Calma 5 Nordeste 0 -- -- 69
2020-09-05 02:00:00 17.8 0 Calma 4 Norte 0 -- -- 62
2020-09-05 01:00:00 19.6 0 Calma 4 Este 0 -- -- 58
2020-09-05 00:00:00 21.7 0 Calma 10 Este 0 -- -- 49
2020-09-04 23:00:00 23.5 6 Sudoeste 12 Oeste 0 -- -- 40
2020-09-04 22:00:00 27.4 4 Norte 23 Sur 0 -- -- 32
2020-09-04 21:00:00 31.7 8 Sur 21 Sur 0 -- -- 23
2020-09-04 20:00:00 35.6 10 Sur 21 Sudoeste 0 -- -- 17
2020-09-04 19:00:00 36.1 8 Oeste 20 Sudoeste 0 -- -- 20
2020-09-04 18:00:00 36.7 5 Sudeste 27 Sur 0 -- -- 20
2020-09-04 17:00:00 36.3 10 Sudeste 24 Sudeste 0 -- -- 20
2020-09-04 16:00:00 35.8 8 Sudeste 25 Este 0 -- -- 20
2020-09-04 15:00:00 35.1 11 Este 27 Este 0 -- -- 24
2020-09-04 14:00:00 33.8 14 Este 31 Este 0 -- -- 26
2020-09-04 13:00:00 33 11 Este 35 Sudeste 0 -- -- 25
2020-09-04 12:00:00 31 14 Este 33 Este 0 -- -- 26
2020-09-04 11:00:00 28.7 17 Este 30 Este 0 -- -- 32
2020-09-04 10:00:00 24.7 11 Este 17 Este 0 -- -- 38
2020-09-04 09:00:00 16 0 Calma 4 Nordeste 0 -- -- 64
2020-09-04 08:00:00 14.1 3 Sudeste 8 Sudeste 0 -- -- 69
2020-09-04 07:00:00 13.9 3 Este 8 Sudeste 0 -- -- 67
2020-09-04 06:00:00 14.6 2 Nordeste 6 Sudeste 0 -- -- 66
2020-09-04 05:00:00 15.9 4 Sudeste 7 Sudeste 0 -- -- 62
2020-09-04 04:00:00 16.6 3 Este 8 Sudeste 0 -- -- 59
2020-09-04 03:00:00 16.8 3 Este 9 Este 0 -- -- 57
2020-09-04 02:00:00 17.8 4 Sudeste 9 Este 0 -- -- 55
2020-09-04 01:00:00 18.8 4 Este 9 Nordeste 0 -- -- 53
2020-09-04 00:00:00 20.5 2 Nordeste 8 Sudeste 0 -- -- 49
2020-09-03 23:00:00 24 3 Sur 9 Sur 0 -- -- 40
2020-09-03 22:00:00 27.7 7 Sur 21 Sudoeste 0 -- -- 35
2020-09-03 21:00:00 31.3 3 Sudeste 20 Sudeste 0 -- -- 24
2020-09-03 20:00:00 34.1 11 Sudeste 23 Sur 0 -- -- 20
2020-09-03 19:00:00 35.7 10 Sudeste 27 Sudeste 0 -- -- 18
2020-09-03 18:00:00 36.2 11 Sur 32 Este 0 -- -- 18
2020-09-03 17:00:00 36.1 14 Sudeste 32 Sudeste 0 -- -- 17
2020-09-03 16:00:00 35.6 9 Este 36 Este 0 -- -- 16
2020-09-03 15:00:00 34.9 15 Sudeste 29 Sur 0 -- -- 19
2020-09-03 14:00:00 34.8 7 Sur 24 Nordeste 0 -- -- 20
2020-09-03 13:00:00 33.5 9 Sudeste 22 Sudeste 0 -- -- 23
2020-09-03 12:00:00 32.1 6 Sur 14 Sudoeste 0 -- -- 25
2020-09-03 11:00:00 27.2 3 Oeste 5 Oeste 0 -- -- 31
2020-09-03 10:00:00 22.3 4 Sudeste 6 Sudeste 0 -- -- 39
2020-09-03 09:00:00 15 5 Este 8 Este 0 -- -- 60
2020-09-03 08:00:00 12.1 3 Nordeste 8 Sur 0 -- -- 66
2020-09-03 07:00:00 11.9 3 Sudeste 6 Este 0 -- -- 66
2020-09-03 06:00:00 12.6 3 Sudeste 6 Nordeste 0 -- -- 62
2020-09-03 05:00:00 14.5 2 Nordeste 6 Este 0 -- -- 55
2020-09-03 04:00:00 15.3 4 Sudeste 6 Este 0 -- -- 53
2020-09-03 03:00:00 15.2 5 Este 9 Sudeste 0 -- -- 55
2020-09-03 02:00:00 16 3 Este 9 Sudeste 0 -- -- 54
2020-09-03 01:00:00 16.9 2 Este 6 Este 0 -- -- 52
2020-09-03 00:00:00 18.8 2 Nordeste 4 Nordeste 0 -- -- 46
2020-09-02 23:00:00 21.2 2 Nordeste 6 Nordeste 0 -- -- 40
2020-09-02 22:00:00 24.6 3 Nordeste 7 Sudoeste 0 -- -- 35
2020-09-02 21:00:00 28.8 6 Sudoeste 24 Sur 0 -- -- 28
2020-09-02 20:00:00 31.6 12 Sudoeste 26 Sudoeste 0 -- -- 26
2020-09-02 19:00:00 33.6 10 Sudoeste 30 Oeste 0 -- -- 24
2020-09-02 18:00:00 33.5 8 Sudoeste 18 Sudoeste 0 -- -- 25
2020-09-02 17:00:00 32.9 6 Oeste 22 Oeste 0 -- -- 26
2020-09-02 16:00:00 33.8 9 Oeste 28 Sur 0 -- -- 25
2020-09-02 15:00:00 32.7 7 Norte 26 Sudoeste 0 -- -- 27
2020-09-02 14:00:00 31.3 7 Noroeste 19 Oeste 0 -- -- 31
2020-09-02 13:00:00 29.7 9 Oeste 19 Oeste 0 -- -- 35
2020-09-02 12:00:00 27.2 9 Oeste 15 Oeste 0 -- -- 41
2020-09-02 11:00:00 22.9 6 Noroeste 10 Oeste 0 -- -- 50
2020-09-02 10:00:00 18.4 3 Oeste 4 Oeste 0 -- -- 64
2020-09-02 09:00:00 14 3 Sudeste 5 Sudeste 0 -- -- 74
2020-09-02 08:00:00 11.2 0 Calma 3 Nordeste 0 -- -- 79
2020-09-02 07:00:00 12.2 2 Este 3 Nordeste 0 -- -- 77
2020-09-02 06:00:00 13.1 2 Este 4 Sudoeste 0 -- -- 75
2020-09-02 05:00:00 14.6 2 Sur 9 Este 0 -- -- 69
2020-09-02 04:00:00 16.8 4 Nordeste 11 Oeste 0 -- -- 66
2020-09-02 03:00:00 19 0 Calma 14 Noroeste 0 -- -- 60
2020-09-02 02:00:00 20.9 9 Noroeste 16 Noroeste 0 -- -- 56
2020-09-02 01:00:00 22.2 4 Oeste 22 Oeste 0 -- -- 52
2020-09-02 00:00:00 23.9 11 Oeste 19 Oeste 0 -- -- 48
2020-09-01 23:00:00 25.2 11 Noroeste 25 Noroeste 0 -- -- 44
2020-09-01 22:00:00 25 3 Nordeste 14 Noroeste 0 -- -- 24
2020-09-01 21:00:00 28.1 7 Noroeste 22 Noroeste 0 -- -- 19
2020-09-01 20:00:00 30.8 13 Noroeste 28 Oeste 0 -- -- 12
2020-09-01 19:00:00 31.4 12 Oeste 33 Oeste 0 -- -- 14
2020-09-01 18:00:00 32.3 13 Oeste 35 Oeste 0 -- -- 12
2020-09-01 17:00:00 31.8 17 Oeste 33 Oeste 0 -- -- 15
2020-09-01 16:00:00 31.7 14 Oeste 27 Noroeste 0 -- -- 16
2020-09-01 15:00:00 31.5 14 Oeste 30 Oeste 0 -- -- 17
2020-09-01 14:00:00 30.9 17 Oeste 27 Oeste 0 -- -- 16
2020-09-01 13:00:00 28.8 8 Oeste 18 Oeste 0 -- -- 20
2020-09-01 12:00:00 25.9 6 Oeste 13 Oeste 0 -- -- 23
2020-09-01 11:00:00 22.7 2 Oeste 8 Este 0 -- -- 29
2020-09-01 10:00:00 17.4 2 Este 6 Noroeste 0 -- -- 40
2020-09-01 09:00:00 13.9 3 Noroeste 4 Sudeste 0 -- -- 51
2020-09-01 08:00:00 13.2 4 Este 6 Este 0 -- -- 47
2020-09-01 07:00:00 12.9 0 Calma 5 Este 0 -- -- 48
2020-09-01 06:00:00 12.3 0 Calma 4 Sur 0 -- -- 48
2020-09-01 05:00:00 12.3 2 Sudeste 5 Nordeste 0 -- -- 48
2020-09-01 04:00:00 13.3 0 Calma 6 Sudeste 0 -- -- 42
2020-09-01 03:00:00 14 4 Este 6 Nordeste 0 -- -- 40
2020-09-01 02:00:00 15 0 Calma 7 Noroeste 0 -- -- 37
2020-09-01 01:00:00 16.2 2 Sudeste 6 Sudeste 0 -- -- 34
2020-09-01 00:00:00 18.9 3 Este 8 Este 0 -- -- 29
2020-08-31 23:00:00 20 4 Este 7 Este 0 -- -- 26
2020-08-31 22:00:00 23 3 Nordeste 8 Nordeste 0 -- -- 23
2020-08-31 21:00:00 28.5 3 Noroeste 20 Noroeste 0 -- -- 17
2020-08-31 20:00:00 30.9 15 Noroeste 30 Norte 0 -- -- 15
2020-08-31 19:00:00 32.7 10 Norte 26 Noroeste 0 -- -- 16
2020-08-31 18:00:00 33.4 9 Oeste 22 Oeste 0 -- -- 16
2020-08-31 17:00:00 32.9 9 Noroeste 31 Oeste 0 -- -- 17
2020-08-31 16:00:00 32.8 12 Noroeste 20 Noroeste 0 -- -- 17
2020-08-31 15:00:00 32.3 8 Sur 19 Sudoeste 0 -- -- 19
2020-08-31 14:00:00 31.6 10 Sur 22 Sudoeste 0 -- -- 19
2020-08-31 13:00:00 30.2 5 Sur 21 Sudeste 0 -- -- 20
2020-08-31 12:00:00 29 6 Sudoeste 17 Este 0 -- -- 21
2020-08-31 11:00:00 27.2 6 Sudeste 14 Sudeste 0 -- -- 26
2020-08-31 10:00:00 19.8 0 Calma 5 Nordeste 0 -- -- 34
2020-08-31 09:00:00 13 3 Sudeste 7 Este 0 -- -- 48
2020-08-31 08:00:00 10.7 4 Este 8 Este 0 -- -- 50
2020-08-31 07:00:00 11 3 Este 7 Nordeste 0 -- -- 49
2020-08-31 06:00:00 12.9 3 Este 6 Sudeste 0 -- -- 44
2020-08-31 05:00:00 15.9 0 Calma 9 Nordeste 0 -- -- 35
2020-08-31 04:00:00 17.6 4 Nordeste 13 Sudeste 0 -- -- 34
2020-08-31 03:00:00 17.4 4 Sudeste 9 Sudeste 0 -- -- 33
2020-08-31 02:00:00 17.5 3 Sudeste 8 Sudeste 0 -- -- 34
2020-08-31 01:00:00 17.1 5 Sudeste 9 Sudeste 0 -- -- 33
2020-08-31 00:00:00 21.1 0 Calma 14 Norte 0 -- -- 26
2020-08-30 23:00:00 24.1 12 Norte 26 Nordeste 0 -- -- 22
2020-08-30 22:00:00 24.8 11 Norte 28 Norte 0 -- -- 20
2020-08-30 21:00:00 26.5 10 Norte 24 Noroeste 0 -- -- 20
2020-08-30 20:00:00 29.1 14 Norte 25 Norte 0 -- -- 18
2020-08-30 19:00:00 29.8 11 Norte 27 Noroeste 0 -- -- 17
2020-08-30 18:00:00 30 8 Norte 26 Norte 0 -- -- 18
2020-08-30 17:00:00 30 15 Noroeste 28 Oeste 0 -- -- 17
2020-08-30 16:00:00 29.6 11 Norte 27 Norte 0 -- -- 17
2020-08-30 15:00:00 28.9 15 Noroeste 29 Noroeste 0 -- -- 20
2020-08-30 14:00:00 28.4 7 Noroeste 18 Nordeste 0 -- -- 23
2020-08-30 13:00:00 27.6 7 Sur 18 Este 0 -- -- 23
2020-08-30 12:00:00 26.2 9 Norte 15 Norte 0 -- -- 24
2020-08-30 11:00:00 23.3 5 Sur 10 Sudoeste 0 -- -- 35
2020-08-30 10:00:00 17.4 2 Sudoeste 5 Este 0 -- -- 51
2020-08-30 09:00:00 11.1 2 Sudoeste 5 Sur 0 -- -- 75
2020-08-30 08:00:00 9.2 2 Este 5 Nordeste 0 -- -- 79
2020-08-30 07:00:00 10.4 3 Este 6 Este 0 -- -- 76
2020-08-30 06:00:00 12.2 3 Nordeste 9 Sudeste 0 -- -- 70
2020-08-30 05:00:00 14.9 2 Este 14 Nordeste 0 -- -- 62
2020-08-30 04:00:00 18.4 8 Nordeste 19 Este 0 -- -- 54
2020-08-30 03:00:00 17.4 4 Nordeste 15 Norte 0 -- -- 60
2020-08-30 02:00:00 18.9 7 Noroeste 18 Norte 0 -- -- 56
2020-08-30 01:00:00 19.8 4 Norte 23 Noroeste 0 -- -- 51
2020-08-30 00:00:00 21.5 11 Noroeste 24 Norte 0 -- -- 39
2020-08-29 23:00:00 22.5 10 Norte 22 Norte 0 -- -- 30
2020-08-29 22:00:00 23.4 7 Norte 21 Norte 0 -- -- 28
2020-08-29 21:00:00 24.6 12 Norte 28 Norte 0 -- -- 25
2020-08-29 20:00:00 26.4 16 Norte 35 Norte 0 -- -- 22
2020-08-29 19:00:00 27 16 Norte 36 Noroeste 0 -- -- 23
2020-08-29 18:00:00 27.2 17 Norte 35 Noroeste 0 -- -- 23
2020-08-29 17:00:00 27 19 Norte 39 Norte 0 -- -- 22
2020-08-29 16:00:00 26.9 16 Norte 39 Norte 0 -- -- 23
2020-08-29 15:00:00 25.8 18 Norte 38 Norte 0 -- -- 26
2020-08-29 14:00:00 24.3 21 Noroeste 47 Noroeste 0 -- -- 30
2020-08-29 13:00:00 22.4 18 Norte 42 Norte 0 -- -- 36
2020-08-29 12:00:00 20.8 16 Noroeste 36 Noroeste 0 -- -- 42
2020-08-29 11:00:00 18.3 16 Norte 35 Noroeste 0 -- -- 50
2020-08-29 10:00:00 15.9 18 Noroeste 32 Nordeste 0 -- -- 60
2020-08-29 09:00:00 14.3 10 Norte 26 Norte 0 -- -- 69
2020-08-29 08:00:00 13.7 8 Norte 22 Noroeste 0 -- -- 72
2020-08-29 07:00:00 14.1 8 Noroeste 20 Noroeste 0 -- -- 70
2020-08-29 06:00:00 14.3 6 Noroeste 15 Noroeste 0 -- -- 68
2020-08-29 05:00:00 15 7 Noroeste 26 Oeste 0 -- -- 65
2020-08-29 04:00:00 15.6 8 Noroeste 26 Noroeste 0 -- -- 65
2020-08-29 03:00:00 16.3 12 Noroeste 35 Noroeste 0 -- -- 63
2020-08-29 02:00:00 17 12 Noroeste 35 Norte 0 -- -- 59
2020-08-29 01:00:00 18 16 Noroeste 31 Noroeste 0 -- -- 53
2020-08-29 00:00:00 19.7 7 Noroeste 36 Noroeste 0 -- -- 45
2020-08-28 23:00:00 21.6 12 Noroeste 37 Oeste 0 -- -- 39
2020-08-28 22:00:00 23.4 14 Noroeste 33 Noroeste 0 -- -- 35
2020-08-28 21:00:00 25.6 16 Noroeste 35 Noroeste 0 -- -- 27
2020-08-28 20:00:00 28.3 16 Noroeste 33 Noroeste 0 -- -- 21
2020-08-28 19:00:00 29.9 14 Noroeste 40 Oeste 0 -- -- 20
2020-08-28 18:00:00 30.3 21 Noroeste 38 Oeste 0 -- -- 31
2020-08-28 17:00:00 31.1 18 Noroeste 40 Oeste 0 -- -- 29
2020-08-28 16:00:00 30.5 19 Noroeste 40 Oeste 0 -- -- 39
2020-08-28 15:00:00 29.5 16 Noroeste 41 Oeste 0 -- -- 45
2020-08-28 14:00:00 29.1 16 Noroeste 32 Norte 0 -- -- 46
2020-08-28 13:00:00 28.1 8 Oeste 27 Norte 0 -- -- 48
2020-08-28 12:00:00 25.5 6 Noroeste 21 Noroeste 0 -- -- 56
2020-08-28 11:00:00 22.7 12 Noroeste 24 Oeste 0 -- -- 66
2020-08-28 10:00:00 20.3 7 Noroeste 24 Noroeste 0 -- -- 75
2020-08-28 09:00:00 18.7 11 Noroeste 19 Noroeste 0 -- -- 85
2020-08-28 08:00:00 18 8 Noroeste 18 Noroeste 0 -- -- 87
2020-08-28 07:00:00 17.8 6 Noroeste 16 Noroeste 0 -- -- 89
2020-08-28 06:00:00 18.4 9 Noroeste 18 Norte 0 -- -- 86
2020-08-28 05:00:00 18.7 8 Norte 18 Noroeste 0 -- -- 85
2020-08-28 04:00:00 19.3 6 Noroeste 14 Noroeste 0 -- -- 81
2020-08-28 03:00:00 20 6 Noroeste 22 Oeste 0 -- -- 78
2020-08-28 02:00:00 21.3 11 Noroeste 24 Norte 0 -- -- 74
2020-08-28 01:00:00 23 13 Oeste 26 Oeste 0 -- -- 68
2020-08-28 00:00:00 25.1 8 Oeste 21 Noroeste 0 -- -- 55
2020-08-27 23:00:00 27.2 8 Noroeste 36 Noroeste 0 -- -- 47
2020-08-27 22:00:00 29.8 22 Noroeste 36 Noroeste 0 -- -- 40
2020-08-27 21:00:00 32.5 17 Noroeste 28 Noroeste 0 -- -- 24
2020-08-27 20:00:00 34.8 9 Noroeste 26 Noroeste 0 -- -- 25
2020-08-27 19:00:00 35.8 14 Noroeste 31 Noroeste 0 -- -- 25
2020-08-27 18:00:00 36 18 Noroeste 29 Noroeste 0 -- -- 24
2020-08-27 17:00:00 35.4 18 Oeste 31 Noroeste 0 -- -- 27
2020-08-27 16:00:00 34.9 19 Oeste 32 Oeste 0 -- -- 30
2020-08-27 15:00:00 34.6 17 Oeste 29 Sudoeste 0 -- -- 30
2020-08-27 14:00:00 33.3 18 Oeste 29 Oeste 0 -- -- 36
2020-08-27 13:00:00 31.3 8 Oeste 18 Oeste 0 -- -- 43
2020-08-27 12:00:00 28.6 9 Oeste 19 Oeste 0 -- -- 51
2020-08-27 11:00:00 25.6 5 Oeste 11 Oeste 0 -- -- 53
2020-08-27 10:00:00 21.8 0 Calma 5 Este 0 -- -- 61
2020-08-27 09:00:00 15.6 2 Nordeste 5 Sudoeste 0 -- -- 70
2020-08-27 08:00:00 14 2 Nordeste 5 Este 0 -- -- 70
2020-08-27 07:00:00 14.8 0 Calma 3 Sur 0 -- -- 71
2020-08-27 06:00:00 16 3 Este 6 Este 0 -- -- 65
2020-08-27 05:00:00 16.9 2 Nordeste 4 Sudeste 0 -- -- 56
2020-08-27 04:00:00 18 0 Calma 5 Este 0 -- -- 52
2020-08-27 03:00:00 19.1 0 Calma 9 Sudeste 0 -- -- 50
2020-08-27 02:00:00 20.5 6 Este 10 Sudeste 0 -- -- 42
2020-08-27 01:00:00 20.3 2 Este 12 Sudeste 0 -- -- 42
2020-08-27 00:00:00 22.6 3 Este 5 Este 0 -- -- 36
2020-08-26 23:00:00 24.6 4 Sudeste 11 Este 0 -- -- 32
2020-08-26 22:00:00 28.3 5 Nordeste 8 Nordeste 0 -- -- 29
2020-08-26 21:00:00 33.6 5 Oeste 16 Noroeste 0 -- -- 22
2020-08-26 20:00:00 37 5 Noroeste 18 Oeste 0 -- -- 16
2020-08-26 19:00:00 37.6 11 Oeste 27 Oeste 0 -- -- 14
2020-08-26 18:00:00 37.7 12 Oeste 25 Oeste 0 -- -- 14
2020-08-26 17:00:00 37.3 15 Oeste 28 Oeste 0 -- -- 19
2020-08-26 16:00:00 37.1 13 Oeste 28 Oeste 0 -- -- 20
2020-08-26 15:00:00 36.6 11 Oeste 27 Noroeste 0 -- -- 21
2020-08-26 14:00:00 35.8 13 Oeste 24 Oeste 0 -- -- 22
2020-08-26 13:00:00 35.1 13 Noroeste 20 Oeste 0 -- -- 22
2020-08-26 12:00:00 34.3 4 Noroeste 12 Oeste 0 -- -- 21
2020-08-26 11:00:00 30.4 2 Norte 6 Noroeste 0 -- -- 25
2020-08-26 10:00:00 24 2 Sur 4 Sudoeste 0 -- -- 37
2020-08-26 09:00:00 17.4 3 Nordeste 6 Este 0 -- -- 59
2020-08-26 08:00:00 14.7 2 Este 7 Sudeste 0 -- -- 67
2020-08-26 07:00:00 14.8 0 Calma 4 Este 0 -- -- 67
2020-08-26 06:00:00 15.6 3 Este 5 Este 0 -- -- 67
2020-08-26 05:00:00 16.9 3 Este 5 Sudeste 0 -- -- 62
2020-08-26 04:00:00 18.1 0 Calma 4 Sudeste 0 -- -- 58
2020-08-26 03:00:00 19.2 3 Sudeste 9 Sudeste 0 -- -- 53
2020-08-26 02:00:00 21.8 3 Nordeste 10 Sudoeste 0 -- -- 46
2020-08-26 01:00:00 26.2 4 Noroeste 12 Nordeste 0 -- -- 38
2020-08-26 00:00:00 26.4 3 Norte 15 Sur 0 -- -- 35